createdAt,value
2018-03-23T00:02:17.830Z,7.20
2018-03-23T00:04:45.290Z,7.20
2018-03-23T00:07:12.742Z,7.30
2018-03-23T00:09:40.537Z,7.30
2018-03-23T00:12:08.012Z,7.20
2018-03-23T00:14:35.459Z,7.20
2018-03-23T00:17:02.954Z,7.20
2018-03-23T00:19:30.421Z,7.20
2018-03-23T00:21:57.910Z,7.20
2018-03-23T00:24:25.385Z,7.20
2018-03-23T00:26:52.818Z,7.20
2018-03-23T00:29:20.282Z,7.20
2018-03-23T00:31:47.730Z,7.20
2018-03-23T00:34:15.249Z,7.20
2018-03-23T00:36:42.717Z,7.20
2018-03-23T00:39:10.146Z,7.20
2018-03-23T00:41:37.614Z,7.20
2018-03-23T00:44:05.069Z,7.20
2018-03-23T00:46:33.312Z,7.10
2018-03-23T00:49:00.770Z,7.10
2018-03-23T00:51:28.215Z,7.10
2018-03-23T00:53:55.678Z,7.20
2018-03-23T00:56:23.182Z,7.10
2018-03-23T00:58:50.902Z,7.10
2018-03-23T01:01:19.154Z,7.20
2018-03-23T01:03:46.611Z,7.10
2018-03-23T01:06:14.086Z,7.10
2018-03-23T01:08:41.554Z,7.10
2018-03-23T01:11:09.026Z,7.10
2018-03-23T01:13:36.478Z,7.20
2018-03-23T01:16:03.943Z,7.20
2018-03-23T01:18:31.477Z,7.20
2018-03-23T01:20:59.029Z,7.20
2018-03-23T01:23:26.486Z,7.10
2018-03-23T01:25:53.946Z,7.10
2018-03-23T01:28:21.406Z,7.10
2018-03-23T01:30:48.854Z,7.10
2018-03-23T01:33:16.468Z,7.20
2018-03-23T01:35:43.917Z,7.20
2018-03-23T01:38:11.378Z,7.20
2018-03-23T01:40:38.842Z,7.20
2018-03-23T01:43:06.403Z,7.30
2018-03-23T01:45:34.628Z,7.30
2018-03-23T01:48:02.101Z,7.30
2018-03-23T01:50:29.579Z,7.30
2018-03-23T01:52:57.046Z,7.30
2018-03-23T01:55:24.514Z,7.40
2018-03-23T01:57:51.983Z,7.40
2018-03-23T02:00:19.474Z,7.40
2018-03-23T02:02:46.925Z,7.30
2018-03-23T02:05:14.386Z,7.30
2018-03-23T02:07:41.860Z,7.30
2018-03-23T02:10:09.322Z,7.30
2018-03-23T02:12:36.808Z,7.30
2018-03-23T02:15:04.367Z,7.40
2018-03-23T02:17:31.822Z,7.40
2018-03-23T02:19:59.271Z,7.40
2018-03-23T02:22:26.778Z,7.40
2018-03-23T02:24:54.234Z,7.40
2018-03-23T02:27:21.706Z,7.40
2018-03-23T02:29:49.164Z,7.40
2018-03-23T02:32:16.962Z,7.40
2018-03-23T02:34:44.439Z,7.40
2018-03-23T02:37:11.901Z,7.40
2018-03-23T02:39:39.470Z,7.40
2018-03-23T02:42:06.918Z,7.30
2018-03-23T02:44:34.423Z,7.40
2018-03-23T02:47:01.878Z,7.40
2018-03-23T02:49:29.664Z,7.30
2018-03-23T02:51:57.149Z,7.30
2018-03-23T02:54:24.604Z,7.40
2018-03-23T02:56:52.074Z,7.40
2018-03-23T02:59:19.525Z,7.40
2018-03-23T03:01:47.802Z,7.40
2018-03-23T03:04:15.259Z,7.40
2018-03-23T03:06:43.074Z,7.40
2018-03-23T03:09:10.530Z,7.40
2018-03-23T03:11:37.978Z,7.40
2018-03-23T03:14:05.551Z,7.40
2018-03-23T03:16:33.020Z,7.40
2018-03-23T03:19:00.530Z,7.40
2018-03-23T03:21:28.006Z,7.40
2018-03-23T03:23:55.469Z,7.40
2018-03-23T03:26:22.927Z,7.30
2018-03-23T03:28:50.422Z,7.40
2018-03-23T03:31:17.895Z,7.40
2018-03-23T03:33:45.449Z,7.30
2018-03-23T03:36:13.014Z,7.40
2018-03-23T03:38:40.470Z,7.30
2018-03-23T03:41:07.944Z,7.30
2018-03-23T03:43:35.394Z,7.30
2018-03-23T03:46:02.850Z,7.30
2018-03-23T03:48:31.086Z,7.20
2018-03-23T03:50:58.534Z,7.20
2018-03-23T03:53:26.133Z,7.30
2018-03-23T03:55:53.589Z,7.20
2018-03-23T03:58:21.054Z,7.20
2018-03-23T04:00:48.543Z,7.20
2018-03-23T04:03:15.994Z,7.10
2018-03-23T04:05:43.458Z,7.10
2018-03-23T04:08:11.186Z,7.00
2018-03-23T04:10:38.650Z,7.00
2018-03-23T04:13:06.109Z,7.00
2018-03-23T04:15:33.577Z,7.00
2018-03-23T04:18:01.038Z,7.00
2018-03-23T04:20:28.606Z,7.00
2018-03-23T04:22:56.054Z,7.00
2018-03-23T04:25:23.514Z,7.10
2018-03-23T04:27:50.995Z,7.10
2018-03-23T04:30:18.418Z,7.00
2018-03-23T04:32:46.680Z,6.90
2018-03-23T04:35:14.133Z,6.90
2018-03-23T04:37:41.599Z,6.90
2018-03-23T04:40:09.051Z,6.80
2018-03-23T04:42:36.527Z,6.80
2018-03-23T04:45:03.981Z,6.80
2018-03-23T04:47:31.494Z,6.80
2018-03-23T04:49:58.957Z,6.80
2018-03-23T04:52:26.428Z,6.70
2018-03-23T04:54:53.894Z,6.70
2018-03-23T04:57:21.350Z,6.60
2018-03-23T04:59:48.850Z,6.60
2018-03-23T05:02:16.347Z,6.50
2018-03-23T05:04:43.774Z,6.50
2018-03-23T05:07:11.254Z,6.50
2018-03-23T05:09:38.710Z,6.50
2018-03-23T05:12:06.198Z,6.50
2018-03-23T05:14:33.642Z,6.50
2018-03-23T05:17:01.133Z,6.50
2018-03-23T05:19:28.585Z,6.40
2018-03-23T05:21:56.049Z,6.50
2018-03-23T05:24:23.506Z,6.40
2018-03-23T05:26:50.973Z,6.50
2018-03-23T05:29:18.478Z,6.50
2018-03-23T05:31:46.010Z,6.50
2018-03-23T05:34:13.462Z,6.40
2018-03-23T05:36:41.705Z,6.40
2018-03-23T05:39:09.172Z,6.40
2018-03-23T05:41:36.646Z,6.40
2018-03-23T05:44:04.179Z,6.40
2018-03-23T05:46:32.387Z,6.50
2018-03-23T05:48:59.874Z,6.40
2018-03-23T05:51:27.408Z,6.50
2018-03-23T05:53:54.870Z,6.50
2018-03-23T05:56:22.330Z,6.50
2018-03-23T05:58:50.550Z,6.50
2018-03-23T06:01:18.013Z,6.50
2018-03-23T06:03:45.462Z,6.50
2018-03-23T06:06:13.763Z,6.50
2018-03-23T06:08:41.984Z,6.50
2018-03-23T06:11:09.435Z,6.50
2018-03-23T06:13:36.926Z,6.60
2018-03-23T06:16:04.398Z,6.60
2018-03-23T06:18:31.868Z,6.60
2018-03-23T06:20:59.322Z,6.60
2018-03-23T06:23:26.784Z,6.60
2018-03-23T06:25:54.234Z,6.60
2018-03-23T06:30:24.922Z,6.60
2018-03-23T06:32:52.376Z,6.60
2018-03-23T06:35:19.835Z,6.70
2018-03-23T06:37:48.050Z,6.70
2018-03-23T06:40:15.521Z,6.70
2018-03-23T06:42:43.024Z,6.70
2018-03-23T06:45:21.363Z,6.70
2018-03-23T06:47:48.809Z,6.70
2018-03-23T06:50:16.267Z,6.70
2018-03-23T06:52:43.742Z,6.60
2018-03-23T06:55:11.223Z,6.60
2018-03-23T06:57:38.681Z,6.60
2018-03-23T07:00:06.130Z,6.60
2018-03-23T07:02:33.595Z,6.60
2018-03-23T07:05:01.045Z,6.60
2018-03-23T07:07:29.275Z,6.50
2018-03-23T07:09:56.726Z,6.50
2018-03-23T07:12:24.222Z,6.50
2018-03-23T07:14:51.690Z,6.50
2018-03-23T07:17:19.142Z,6.50
2018-03-23T07:19:46.602Z,6.50
2018-03-23T07:22:14.114Z,6.60
2018-03-23T07:24:41.576Z,6.50
2018-03-23T07:27:09.022Z,6.60
2018-03-23T07:29:36.474Z,6.60
2018-03-23T07:32:03.933Z,6.70
2018-03-23T07:34:31.386Z,6.60
2018-03-23T07:36:59.610Z,6.70
2018-03-23T07:39:27.070Z,6.70
2018-03-23T07:41:54.541Z,6.70
2018-03-23T07:44:21.990Z,6.70
2018-03-23T07:46:50.541Z,6.60
2018-03-23T07:49:17.994Z,6.60
2018-03-23T07:51:45.715Z,6.60
2018-03-23T07:54:13.170Z,6.60
2018-03-23T07:56:40.730Z,6.70
2018-03-23T07:59:08.194Z,6.70
2018-03-23T08:01:35.650Z,6.70
2018-03-23T08:06:00.654Z,6.80
2018-03-23T08:08:28.881Z,6.90
2018-03-23T08:10:56.428Z,6.90
2018-03-23T08:13:23.871Z,7.10
2018-03-23T08:15:52.103Z,7.40
2018-03-23T08:18:19.597Z,7.30
2018-03-23T08:20:47.163Z,7.50
2018-03-23T08:23:14.614Z,7.50
2018-03-23T08:25:42.087Z,7.60
2018-03-23T08:28:09.554Z,7.80
2018-03-23T08:30:37.021Z,8.10
2018-03-23T08:33:04.486Z,8.20
2018-03-23T08:35:31.955Z,8.20
2018-03-23T08:37:59.426Z,8.30
2018-03-23T08:40:26.878Z,8.40
2018-03-23T08:42:54.392Z,8.30
2018-03-23T08:45:21.870Z,8.20
2018-03-23T08:47:49.455Z,8.10
2018-03-23T08:50:16.911Z,8.00
2018-03-23T08:52:44.404Z,8.00
2018-03-23T08:55:11.903Z,7.90
2018-03-23T08:57:39.351Z,7.90
2018-03-23T09:00:07.578Z,7.70
2018-03-23T09:02:35.035Z,7.70
2018-03-23T09:05:02.541Z,7.80
2018-03-23T09:07:29.997Z,7.70
2018-03-23T09:09:57.462Z,7.80
2018-03-23T09:12:24.914Z,7.80
2018-03-23T09:14:52.417Z,7.90
2018-03-23T09:17:19.858Z,7.90
2018-03-23T09:19:47.314Z,8.00
2018-03-23T09:22:14.834Z,8.00
2018-03-23T09:24:42.288Z,8.10
2018-03-23T09:27:09.751Z,8.20
2018-03-23T09:29:37.198Z,8.30
2018-03-23T09:32:04.672Z,8.30
2018-03-23T09:34:32.187Z,8.50
2018-03-23T09:36:59.660Z,8.60
2018-03-23T09:39:27.106Z,8.70
2018-03-23T09:41:54.578Z,8.90
2018-03-23T09:44:22.035Z,9.10
2018-03-23T09:46:49.491Z,9.20
2018-03-23T09:49:17.057Z,9.30
2018-03-23T09:51:44.510Z,9.30
2018-03-23T09:54:12.746Z,9.30
2018-03-23T09:56:40.194Z,9.30
2018-03-23T09:59:07.658Z,9.30
2018-03-23T10:01:35.162Z,9.20
2018-03-23T10:04:02.751Z,9.30
2018-03-23T10:06:30.102Z,9.10
2018-03-23T10:08:57.551Z,9.20
2018-03-23T10:11:25.018Z,9.40
2018-03-23T10:13:52.467Z,9.40
2018-03-23T10:16:19.936Z,9.60
2018-03-23T10:18:47.458Z,9.80
2018-03-23T10:21:14.910Z,9.90
2018-03-23T10:23:42.379Z,10.00
2018-03-23T10:26:09.851Z,9.90
2018-03-23T10:28:37.343Z,9.70
2018-03-23T10:31:04.811Z,9.70
2018-03-23T10:33:32.582Z,9.80
2018-03-23T10:36:00.051Z,9.80
2018-03-23T10:38:27.522Z,9.90
2018-03-23T10:40:54.990Z,9.80
2018-03-23T10:43:22.449Z,9.70
2018-03-23T10:45:49.914Z,9.80
2018-03-23T10:48:17.393Z,9.80
2018-03-23T10:50:44.929Z,9.80
2018-03-23T10:53:13.140Z,9.90
2018-03-23T10:55:40.615Z,9.90
2018-03-23T10:58:08.087Z,10.10
2018-03-23T11:00:41.221Z,10.30
2018-03-23T11:03:08.678Z,10.40
2018-03-23T11:05:36.239Z,10.50
2018-03-23T11:08:03.710Z,10.50
2018-03-23T11:10:31.167Z,10.40
2018-03-23T11:12:58.644Z,10.30
2018-03-23T11:15:26.122Z,10.20
2018-03-23T11:17:53.643Z,9.90
2018-03-23T11:20:21.060Z,9.90
2018-03-23T11:22:48.518Z,9.70
2018-03-23T11:25:15.983Z,9.60
2018-03-23T11:27:43.442Z,9.60
2018-03-23T11:30:10.908Z,9.60
2018-03-23T11:32:38.421Z,9.70
2018-03-23T11:35:05.883Z,9.70
2018-03-23T11:37:33.362Z,9.70
2018-03-23T11:40:00.822Z,9.60
2018-03-23T11:42:28.299Z,9.50
2018-03-23T11:44:55.747Z,9.60
2018-03-23T11:47:23.203Z,9.60
2018-03-23T11:49:50.650Z,9.60
2018-03-23T11:52:18.888Z,9.50
2018-03-23T11:54:46.338Z,9.50
2018-03-23T11:57:13.798Z,9.50
2018-03-23T11:59:41.359Z,9.40
2018-03-23T12:02:08.805Z,9.50
2018-03-23T12:04:37.035Z,9.60
2018-03-23T12:07:04.498Z,9.60
2018-03-23T12:09:31.995Z,9.60
2018-03-23T12:11:59.442Z,9.60
2018-03-23T12:14:26.939Z,9.60
2018-03-23T12:16:54.382Z,9.70
2018-03-23T12:19:21.870Z,9.60
2018-03-23T12:21:49.338Z,9.70
2018-03-23T12:24:16.809Z,9.70
2018-03-23T12:26:44.383Z,9.70
2018-03-23T12:29:11.830Z,9.70
2018-03-23T12:31:39.314Z,9.60
2018-03-23T12:34:06.786Z,9.70
2018-03-23T12:36:34.270Z,9.60
2018-03-23T12:39:01.742Z,9.60
2018-03-23T12:41:29.210Z,9.70
2018-03-23T12:43:56.980Z,9.60
2018-03-23T12:46:24.438Z,9.70
2018-03-23T12:48:51.893Z,9.70
2018-03-23T12:51:19.358Z,9.70
2018-03-23T12:53:46.806Z,9.70
2018-03-23T12:56:15.079Z,9.60
2018-03-23T12:58:42.514Z,9.60
2018-03-23T13:01:09.967Z,9.60
2018-03-23T13:03:37.434Z,9.60
2018-03-23T13:06:04.886Z,9.50
2018-03-23T13:08:32.385Z,9.50
2018-03-23T13:10:59.870Z,9.50
2018-03-23T13:13:27.347Z,9.40
2018-03-23T13:15:54.810Z,9.40
2018-03-23T13:18:22.282Z,9.30
2018-03-23T13:20:49.855Z,9.30
2018-03-23T13:23:17.318Z,9.30
2018-03-23T13:25:44.871Z,9.20
2018-03-23T13:28:13.082Z,9.20
2018-03-23T13:30:40.535Z,9.20
2018-03-23T13:33:08.009Z,9.20
2018-03-23T13:35:35.462Z,9.30
2018-03-23T13:38:02.974Z,9.30
2018-03-23T13:40:30.439Z,9.30
2018-03-23T13:42:57.910Z,9.30
2018-03-23T13:45:25.471Z,9.30
2018-03-23T13:47:52.922Z,9.40
2018-03-23T13:50:20.414Z,9.40
2018-03-23T13:52:47.877Z,9.30
2018-03-23T13:55:15.335Z,9.40
2018-03-23T13:57:42.791Z,9.40
2018-03-23T14:03:15.931Z,9.40
2018-03-23T14:05:43.404Z,9.40
2018-03-23T14:08:10.961Z,9.50
2018-03-23T14:10:38.448Z,9.40
2018-03-23T14:13:05.907Z,9.50
2018-03-23T14:15:33.405Z,9.40
2018-03-23T14:18:00.875Z,9.40
2018-03-23T14:20:28.343Z,9.30
2018-03-23T14:22:55.807Z,9.20
2018-03-23T14:25:23.283Z,9.10
2018-03-23T14:27:50.735Z,9.10
2018-03-23T14:30:18.195Z,9.00
2018-03-23T14:32:45.700Z,8.90
2018-03-23T14:35:13.231Z,8.90
2018-03-23T14:37:40.671Z,8.90
2018-03-23T14:40:08.419Z,8.90
2018-03-23T14:42:35.866Z,8.90
2018-03-23T14:45:03.318Z,8.90
2018-03-23T14:47:30.883Z,8.90
2018-03-23T14:49:59.106Z,8.80
2018-03-23T14:52:26.868Z,8.80
2018-03-23T14:54:54.311Z,8.80
2018-03-23T14:57:21.836Z,8.80
2018-03-23T14:59:49.295Z,8.70
2018-03-23T15:02:16.767Z,8.70
2018-03-23T15:04:44.218Z,8.60
2018-03-23T15:07:11.667Z,8.70
2018-03-23T15:09:39.139Z,8.60
2018-03-23T15:12:06.655Z,8.70
2018-03-23T15:14:34.110Z,8.70
2018-03-23T15:17:01.578Z,8.70
2018-03-23T15:19:29.066Z,8.80
2018-03-23T15:21:56.527Z,8.80
2018-03-23T15:24:23.974Z,8.70
2018-03-23T15:26:51.498Z,8.70
2018-03-23T15:29:18.946Z,8.60
2018-03-23T15:31:46.399Z,8.60
2018-03-23T15:34:13.870Z,8.50
2018-03-23T15:36:41.361Z,8.50
2018-03-23T15:39:08.823Z,8.60
2018-03-23T15:41:36.290Z,8.60
2018-03-23T15:44:03.760Z,8.60
2018-03-23T15:46:31.293Z,8.60
2018-03-23T15:48:58.910Z,8.60
2018-03-23T15:51:26.354Z,8.50
2018-03-23T15:53:53.812Z,8.50
2018-03-23T15:56:21.322Z,8.40
2018-03-23T15:58:48.766Z,8.40
2018-03-23T16:01:16.236Z,8.30
2018-03-23T16:03:43.684Z,8.40
2018-03-23T16:06:11.196Z,8.30
2018-03-23T16:08:38.695Z,8.30
2018-03-23T16:11:06.449Z,8.30
2018-03-23T16:13:33.896Z,8.30
2018-03-23T16:16:01.352Z,8.30
2018-03-23T16:18:28.837Z,8.20
2018-03-23T16:20:56.348Z,8.20
2018-03-23T16:23:23.806Z,8.10
2018-03-23T16:25:51.257Z,8.20
2018-03-23T16:28:19.004Z,8.10
2018-03-23T17:33:46.015Z,7.90
2018-03-23T17:36:13.462Z,7.90
2018-03-23T17:38:40.927Z,7.80
2018-03-23T17:41:09.142Z,7.70
2018-03-23T17:43:36.641Z,7.80
2018-03-23T17:46:04.090Z,7.70
2018-03-23T17:48:31.543Z,7.70
2018-03-23T17:50:59.017Z,7.80
2018-03-23T17:53:26.511Z,7.70
2018-03-23T17:55:54.003Z,7.60
2018-03-23T17:58:21.486Z,7.60
2018-03-23T18:00:49.722Z,7.50
2018-03-23T18:03:17.174Z,7.50
2018-03-23T18:05:44.703Z,7.50
2018-03-23T18:08:12.176Z,7.50
2018-03-23T18:10:39.718Z,7.50
2018-03-23T18:13:07.198Z,7.50
2018-03-23T18:15:34.662Z,7.40
2018-03-23T18:18:02.126Z,7.40
2018-03-23T18:20:29.598Z,7.40
2018-03-23T18:22:57.064Z,7.50
2018-03-23T18:25:24.586Z,7.50
2018-03-23T18:27:52.820Z,7.40
2018-03-23T18:30:20.267Z,7.40
2018-03-23T18:32:47.777Z,7.50
2018-03-23T18:35:15.226Z,7.50
2018-03-23T18:37:42.684Z,7.40
2018-03-23T18:40:10.245Z,7.40
2018-03-23T18:43:59.470Z,7.50
2018-03-23T18:46:26.942Z,7.50
2018-03-23T18:48:54.403Z,7.50
2018-03-23T18:51:21.890Z,7.50
2018-03-23T18:53:49.358Z,7.50
2018-03-23T18:56:16.929Z,7.50
2018-03-23T18:58:44.402Z,7.60
2018-03-23T19:01:11.878Z,7.70
2018-03-23T19:03:39.330Z,7.80
2018-03-23T19:06:06.795Z,7.90
2018-03-23T19:08:34.255Z,7.90
2018-03-23T19:11:01.712Z,7.80
2018-03-23T19:13:29.182Z,7.80
2018-03-23T19:15:56.634Z,7.70
2018-03-23T19:18:24.865Z,7.90
2018-03-23T19:20:52.310Z,7.90
2018-03-23T19:23:19.781Z,7.90
2018-03-23T19:25:47.306Z,7.80
2018-03-23T19:28:14.754Z,7.80
2018-03-23T19:30:42.233Z,7.70
2018-03-23T19:33:09.685Z,7.60
2018-03-23T19:35:37.161Z,7.60
2018-03-23T19:38:04.618Z,7.50
2018-03-23T19:40:32.273Z,7.50
2018-03-23T19:42:59.843Z,7.60
2018-03-23T19:45:28.574Z,7.70
2018-03-23T19:47:56.018Z,7.70
2018-03-23T19:50:23.494Z,7.50
2018-03-23T19:52:50.949Z,7.50
2018-03-23T19:55:18.408Z,7.40
2018-03-23T19:57:46.657Z,7.30
2018-03-23T20:00:14.123Z,7.30
2018-03-23T20:02:41.610Z,7.30
2018-03-23T20:05:09.038Z,7.40
2018-03-23T20:07:36.518Z,7.40
2018-03-23T20:10:04.017Z,7.50
2018-03-23T20:12:31.498Z,7.40
2018-03-23T20:14:58.961Z,7.20
2018-03-23T20:17:32.146Z,7.20
2018-03-23T20:19:59.599Z,7.10
2018-03-23T20:22:27.050Z,7.10
2018-03-23T20:24:55.278Z,7.10
2018-03-23T20:30:29.727Z,7.10
2018-03-23T20:32:57.218Z,7.10
2018-03-23T20:35:24.666Z,7.20
2018-03-23T20:37:52.177Z,7.10
2018-03-23T20:40:19.703Z,7.10
2018-03-23T20:42:47.153Z,7.10
2018-03-23T20:45:15.399Z,7.10
2018-03-23T20:47:42.870Z,7.10
2018-03-23T20:50:10.329Z,7.20
2018-03-23T20:52:37.822Z,7.10
2018-03-23T20:55:05.386Z,7.10
2018-03-23T20:57:32.861Z,7.00
2018-03-23T21:00:01.358Z,7.00
2018-03-23T21:02:30.340Z,7.00
2018-03-23T21:04:57.879Z,7.00
2018-03-23T21:07:26.098Z,7.10
2018-03-23T21:09:53.607Z,7.00
2018-03-23T21:12:21.062Z,7.20
2018-03-23T21:14:48.517Z,7.30
2018-03-23T21:17:16.051Z,7.40
2018-03-23T21:19:43.505Z,7.40
2018-03-23T21:22:11.766Z,7.20
2018-03-23T21:24:39.318Z,7.20
2018-03-23T21:27:06.774Z,7.20
2018-03-23T21:29:34.246Z,7.20
2018-03-23T21:32:01.729Z,7.10
2018-03-23T21:34:29.325Z,7.10
2018-03-23T21:36:56.714Z,7.10
2018-03-23T21:39:24.965Z,7.30
2018-03-23T21:41:52.409Z,7.30
2018-03-23T21:44:19.882Z,7.40
2018-03-23T21:46:47.347Z,7.40
2018-03-23T21:49:14.841Z,7.40
2018-03-23T21:51:42.307Z,7.30
2018-03-23T21:54:09.751Z,7.20
2018-03-23T21:56:37.238Z,7.20
2018-03-23T21:59:04.724Z,7.10
2018-03-23T22:01:33.015Z,7.00
2018-03-23T22:04:00.478Z,7.00
2018-03-23T22:06:27.950Z,7.00
2018-03-23T22:08:55.410Z,7.00
2018-03-23T22:11:22.946Z,7.00
2018-03-23T22:13:50.398Z,7.00
2018-03-23T22:16:18.627Z,7.00
2018-03-23T22:18:46.338Z,7.00
2018-03-23T22:21:13.794Z,7.00
2018-03-23T22:23:41.246Z,6.90
2018-03-23T22:26:08.729Z,6.90
2018-03-23T22:28:36.198Z,6.90
2018-03-23T22:31:03.668Z,7.00
2018-03-23T22:33:31.114Z,7.00
2018-03-23T22:35:58.582Z,6.90
2018-03-23T22:38:26.088Z,6.90
2018-03-23T22:40:53.538Z,6.90
2018-03-23T22:43:21.015Z,6.90
2018-03-23T22:45:48.510Z,6.90
2018-03-23T22:48:15.982Z,6.90
2018-03-23T22:50:43.442Z,6.90
2018-03-23T22:53:10.899Z,6.90
2018-03-23T22:55:38.376Z,6.90
2018-03-23T22:58:05.874Z,6.80
2018-03-23T23:00:33.310Z,6.80
2018-03-23T23:03:00.762Z,6.80
2018-03-23T23:05:28.225Z,6.80
2018-03-23T23:07:55.718Z,6.80
2018-03-23T23:10:25.002Z,6.80
2018-03-23T23:12:52.560Z,6.80
2018-03-23T23:15:20.070Z,6.80
2018-03-23T23:17:47.705Z,6.80
2018-03-23T23:20:15.154Z,6.80
2018-03-23T23:22:43.400Z,6.80
2018-03-23T23:25:10.878Z,6.70
2018-03-23T23:27:38.341Z,6.70
2018-03-23T23:30:05.822Z,6.70
2018-03-23T23:32:33.382Z,6.70
2018-03-23T23:35:00.830Z,6.70
2018-03-23T23:37:28.278Z,6.70
2018-03-23T23:39:55.738Z,6.60
2018-03-23T23:42:23.963Z,6.70
2018-03-23T23:44:51.439Z,6.70
2018-03-23T23:47:18.890Z,6.60
2018-03-23T23:49:46.359Z,6.60
2018-03-23T23:52:13.806Z,6.60
2018-03-23T23:54:42.110Z,6.50
2018-03-23T23:57:09.589Z,6.50
2018-03-23T23:59:37.098Z,6.40
